TAP661A LPPT-LEBL
Flight info
| Callsign | TAP661A |
|---|---|
| Flight time | 1h 25m |
| Altitude | 36000 |
| Route | ORVED DCT UREDI DCT DIPOL DCT RBO DCT PINAR DCT SEGRE DCT BRITO DCT PISUS DCT PONEN T600 CASPE |
| Aircraft | A320/M-SDE3FGHIRWY/LB1 |
Departure
| Time | 2026-05-04 15:46 |
|---|---|
| Airport | Lisbon Humberto Delgado Airport (LPPT) |
Arrival
| Time | 2026-05-04 17:11 |
|---|---|
| Airport | Josep Tarradellas Barcelona-El Prat Airport (LEBL) |
| Time | Latitude | Longitude | Altitude | Speed | Heading |
|---|---|---|---|---|---|
| 2026-05-04 15:14 | 38.76938 | -9.13062 | 333 ft | 0 kts | 78° |
| 2026-05-04 15:14 | 38.76938 | -9.13063 | 333 ft | 0 kts | 78° |
| 2026-05-04 15:19 | 38.76937 | -9.13063 | 337 ft | 0 kts | 78° |
| 2026-05-04 15:28 | 38.76937 | -9.13064 | 337 ft | 0 kts | 78° |
| 2026-05-04 15:38 | 38.76936 | -9.13074 | 337 ft | 4 kts | 78° |
| 2026-05-04 15:38 | 38.76931 | -9.13109 | 333 ft | 4 kts | 83° |
| 2026-05-04 15:38 | 38.76931 | -9.13142 | 334 ft | 4 kts | 117° |
| 2026-05-04 15:38 | 38.76939 | -9.13155 | 334 ft | 0 kts | 168° |
| 2026-05-04 15:39 | 38.76940 | -9.13155 | 334 ft | 0 kts | 168° |
| 2026-05-04 15:41 | 38.76938 | -9.13155 | 333 ft | 2 kts | 168° |
| 2026-05-04 15:42 | 38.76889 | -9.13142 | 339 ft | 8 kts | 167° |
| 2026-05-04 15:42 | 38.76839 | -9.13127 | 337 ft | 7 kts | 168° |
| 2026-05-04 15:42 | 38.76784 | -9.13160 | 338 ft | 12 kts | 248° |
| 2026-05-04 15:42 | 38.76763 | -9.13278 | 341 ft | 14 kts | 258° |
| 2026-05-04 15:43 | 38.76734 | -9.13388 | 346 ft | 13 kts | 230° |
| 2026-05-04 15:43 | 38.76666 | -9.13454 | 347 ft | 11 kts | 224° |
| 2026-05-04 15:43 | 38.76646 | -9.13548 | 352 ft | 12 kts | 263° |
| 2026-05-04 15:43 | 38.76627 | -9.13652 | 353 ft | 12 kts | 256° |
| 2026-05-04 15:44 | 38.76610 | -9.13761 | 350 ft | 13 kts | 257° |
| 2026-05-04 15:44 | 38.76590 | -9.13880 | 345 ft | 14 kts | 257° |
| 2026-05-04 15:44 | 38.76562 | -9.14006 | 350 ft | 15 kts | 238° |
| 2026-05-04 15:44 | 38.76499 | -9.14115 | 351 ft | 16 kts | 249° |
| 2026-05-04 15:45 | 38.76526 | -9.14264 | 339 ft | 20 kts | 293° |
| 2026-05-04 15:45 | 38.76608 | -9.14400 | 336 ft | 18 kts | 9° |
| 2026-05-04 15:45 | 38.76735 | -9.14339 | 336 ft | 24 kts | 21° |
| 2026-05-04 15:45 | 38.77095 | -9.14148 | 358 ft | 88 kts | 22° |
| 2026-05-04 15:46 | 38.77835 | -9.13753 | 364 ft | 141 kts | 22° |
| 2026-05-04 15:46 | 38.78867 | -9.13192 | 471 ft | 173 kts | 23° |
| 2026-05-04 15:46 | 38.79967 | -9.12645 | 1272 ft | 167 kts | 16° |
| 2026-05-04 15:46 | 38.81070 | -9.12073 | 1873 ft | 179 kts | 16° |
| 2026-05-04 15:47 | 38.82246 | -9.11260 | 2192 ft | 206 kts | 26° |
| 2026-05-04 15:47 | 38.83543 | -9.10248 | 2590 ft | 230 kts | 25° |
| 2026-05-04 15:47 | 38.84976 | -9.09132 | 3137 ft | 248 kts | 27° |
| 2026-05-04 15:47 | 38.86469 | -9.07962 | 3946 ft | 254 kts | 27° |
| 2026-05-04 15:48 | 38.87995 | -9.06768 | 4828 ft | 259 kts | 28° |
| 2026-05-04 15:48 | 38.89445 | -9.05386 | 5627 ft | 269 kts | 44° |
| 2026-05-04 15:48 | 38.91337 | -9.01115 | 7229 ft | 281 kts | 61° |
| 2026-05-04 15:49 | 38.92196 | -8.98838 | 8022 ft | 286 kts | 61° |
| 2026-05-04 15:49 | 38.93064 | -8.96515 | 8787 ft | 291 kts | 61° |
| 2026-05-04 15:49 | 38.93947 | -8.94157 | 9573 ft | 296 kts | 61° |
| 2026-05-04 15:49 | 38.94851 | -8.91756 | 10299 ft | 302 kts | 61° |
| 2026-05-04 15:50 | 38.95799 | -8.89244 | 10557 ft | 324 kts | 61° |
| 2026-05-04 15:50 | 38.96819 | -8.86542 | 10775 ft | 346 kts | 62° |
| 2026-05-04 15:50 | 38.97880 | -8.83722 | 11307 ft | 355 kts | 62° |
| 2026-05-04 15:50 | 38.98963 | -8.80837 | 11950 ft | 361 kts | 62° |
| 2026-05-04 15:51 | 39.00055 | -8.77917 | 12610 ft | 365 kts | 62° |
| 2026-05-04 15:51 | 39.01165 | -8.74949 | 13258 ft | 371 kts | 61° |
| 2026-05-04 15:51 | 39.02290 | -8.71940 | 13888 ft | 376 kts | 61° |
| 2026-05-04 15:51 | 39.03430 | -8.68894 | 14451 ft | 381 kts | 61° |
| 2026-05-04 15:52 | 39.04584 | -8.65803 | 15005 ft | 385 kts | 62° |
| 2026-05-04 15:52 | 39.05748 | -8.62680 | 15557 ft | 390 kts | 62° |
| 2026-05-04 15:52 | 39.06929 | -8.59515 | 16122 ft | 394 kts | 62° |
| 2026-05-04 15:52 | 39.08117 | -8.56325 | 16669 ft | 399 kts | 62° |
| 2026-05-04 15:53 | 39.09323 | -8.53083 | 17225 ft | 403 kts | 62° |
| 2026-05-04 15:53 | 39.10534 | -8.49820 | 17781 ft | 407 kts | 62° |
| 2026-05-04 15:53 | 39.11761 | -8.46509 | 18320 ft | 411 kts | 62° |
| 2026-05-04 15:53 | 39.12998 | -8.43169 | 18799 ft | 415 kts | 62° |
| 2026-05-04 15:54 | 39.13822 | -8.40941 | 19120 ft | 418 kts | 62° |
| 2026-05-04 15:54 | 39.15077 | -8.37549 | 19600 ft | 421 kts | 62° |
| 2026-05-04 15:54 | 39.16347 | -8.34123 | 20086 ft | 425 kts | 62° |
| 2026-05-04 15:54 | 39.17624 | -8.30674 | 20573 ft | 429 kts | 62° |
| 2026-05-04 15:55 | 39.18913 | -8.27193 | 21058 ft | 432 kts | 62° |
| 2026-05-04 15:55 | 39.20211 | -8.23672 | 21539 ft | 436 kts | 62° |
| 2026-05-04 15:55 | 39.21513 | -8.20126 | 22015 ft | 440 kts | 62° |
| 2026-05-04 15:55 | 39.22826 | -8.16541 | 22470 ft | 444 kts | 62° |
| 2026-05-04 15:56 | 39.24147 | -8.12928 | 22940 ft | 447 kts | 62° |
| 2026-05-04 15:56 | 39.25480 | -8.09289 | 23380 ft | 450 kts | 62° |
| 2026-05-04 15:56 | 39.26826 | -8.05622 | 23773 ft | 454 kts | 62° |
| 2026-05-04 15:56 | 39.28180 | -8.01927 | 24127 ft | 457 kts | 62° |
| 2026-05-04 15:57 | 39.29538 | -7.98208 | 24480 ft | 460 kts | 62° |
| 2026-05-04 15:57 | 39.30902 | -7.94469 | 24823 ft | 462 kts | 62° |
| 2026-05-04 15:57 | 39.32277 | -7.90702 | 25167 ft | 465 kts | 62° |
| 2026-05-04 15:57 | 39.33659 | -7.86908 | 25509 ft | 468 kts | 62° |
| 2026-05-04 15:58 | 39.35043 | -7.83096 | 25836 ft | 470 kts | 62° |
| 2026-05-04 15:58 | 39.36434 | -7.79258 | 26164 ft | 473 kts | 62° |
| 2026-05-04 15:58 | 39.37829 | -7.75399 | 26483 ft | 476 kts | 62° |
| 2026-05-04 15:58 | 39.39235 | -7.71511 | 26791 ft | 478 kts | 62° |
| 2026-05-04 15:59 | 39.40648 | -7.67600 | 27115 ft | 481 kts | 62° |
| 2026-05-04 15:59 | 39.42064 | -7.63680 | 27422 ft | 483 kts | 62° |
| 2026-05-04 15:59 | 39.43492 | -7.59732 | 27706 ft | 486 kts | 62° |
| 2026-05-04 15:59 | 39.44926 | -7.55761 | 28004 ft | 489 kts | 62° |
| 2026-05-04 16:00 | 39.46348 | -7.51816 | 28293 ft | 491 kts | 62° |
| 2026-05-04 16:00 | 39.47812 | -7.47739 | 28578 ft | 494 kts | 62° |
| 2026-05-04 16:00 | 39.49236 | -7.43758 | 28837 ft | 496 kts | 62° |
| 2026-05-04 16:00 | 39.50687 | -7.39690 | 29100 ft | 499 kts | 62° |
| 2026-05-04 16:01 | 39.52148 | -7.35600 | 29361 ft | 501 kts | 62° |
| 2026-05-04 16:01 | 39.53614 | -7.31492 | 29588 ft | 503 kts | 62° |
| 2026-05-04 16:01 | 39.55084 | -7.27373 | 29828 ft | 506 kts | 62° |
| 2026-05-04 16:01 | 39.56563 | -7.23222 | 30055 ft | 508 kts | 62° |
| 2026-05-04 16:02 | 39.58046 | -7.19056 | 30246 ft | 510 kts | 62° |
| 2026-05-04 16:02 | 39.59528 | -7.14880 | 30436 ft | 512 kts | 62° |
| 2026-05-04 16:02 | 39.62505 | -7.06468 | 30890 ft | 513 kts | 62° |
| 2026-05-04 16:03 | 39.63989 | -7.02265 | 31153 ft | 512 kts | 62° |
| 2026-05-04 16:03 | 39.65470 | -6.98066 | 31430 ft | 512 kts | 62° |
| 2026-05-04 16:03 | 39.66949 | -6.93868 | 31703 ft | 511 kts | 62° |
| 2026-05-04 16:03 | 39.68427 | -6.89667 | 31988 ft | 511 kts | 62° |
| 2026-05-04 16:04 | 39.69898 | -6.85482 | 32268 ft | 510 kts | 62° |
| 2026-05-04 16:04 | 39.72836 | -6.77103 | 32805 ft | 509 kts | 62° |
| 2026-05-04 16:04 | 39.74301 | -6.72918 | 33077 ft | 509 kts | 62° |
| 2026-05-04 16:05 | 39.75767 | -6.68731 | 33350 ft | 509 kts | 62° |
| 2026-05-04 16:05 | 39.77228 | -6.64552 | 33611 ft | 508 kts | 63° |
| 2026-05-04 16:05 | 39.80142 | -6.56182 | 34111 ft | 508 kts | 63° |
| 2026-05-04 16:06 | 39.81594 | -6.52000 | 34340 ft | 507 kts | 63° |
| 2026-05-04 16:06 | 39.85445 | -6.40873 | 34921 ft | 506 kts | 63° |
| 2026-05-04 16:07 | 39.87365 | -6.35275 | 35186 ft | 506 kts | 64° |
| 2026-05-04 16:07 | 39.91555 | -6.22652 | 35752 ft | 506 kts | 65° |
| 2026-05-04 16:08 | 39.92938 | -6.18439 | 35911 ft | 506 kts | 65° |
| 2026-05-04 16:09 | 39.99860 | -5.97512 | 35950 ft | 504 kts | 65° |
| 2026-05-04 16:10 | 40.05389 | -5.80700 | 35946 ft | 504 kts | 65° |
| 2026-05-04 16:11 | 40.10868 | -5.63874 | 35958 ft | 503 kts | 65° |
| 2026-05-04 16:12 | 40.19051 | -5.38626 | 35950 ft | 502 kts | 66° |
| 2026-05-04 16:13 | 40.24467 | -5.21781 | 35951 ft | 502 kts | 66° |
| 2026-05-04 16:14 | 40.29847 | -5.04927 | 35957 ft | 501 kts | 66° |
| 2026-05-04 16:16 | 40.36527 | -4.83899 | 35953 ft | 501 kts | 66° |
| 2026-05-04 16:17 | 40.43164 | -4.62796 | 35953 ft | 500 kts | 67° |
| 2026-05-04 16:18 | 40.48452 | -4.45907 | 35948 ft | 500 kts | 67° |
| 2026-05-04 16:19 | 40.55007 | -4.24779 | 35953 ft | 499 kts | 68° |
| 2026-05-04 16:20 | 40.61515 | -4.03622 | 35958 ft | 499 kts | 68° |
| 2026-05-04 16:22 | 40.67981 | -3.82509 | 35966 ft | 498 kts | 68° |
| 2026-05-04 16:23 | 40.75687 | -3.57080 | 35965 ft | 498 kts | 68° |
| 2026-05-04 16:25 | 40.83320 | -3.31622 | 35936 ft | 497 kts | 69° |
| 2026-05-04 16:26 | 40.90057 | -3.01021 | 35943 ft | 496 kts | 76° |
| 2026-05-04 16:28 | 40.94366 | -2.78947 | 35944 ft | 496 kts | 77° |
| 2026-05-04 16:29 | 41.00306 | -2.48084 | 35959 ft | 495 kts | 77° |
| 2026-05-04 16:31 | 41.04489 | -2.25982 | 35962 ft | 495 kts | 77° |
| 2026-05-04 16:32 | 41.09479 | -1.99453 | 35961 ft | 494 kts | 78° |
| 2026-05-04 16:33 | 41.12747 | -1.81772 | 35959 ft | 494 kts | 78° |
| 2026-05-04 16:34 | 41.15180 | -1.68505 | 35960 ft | 493 kts | 78° |
| 2026-05-04 16:35 | 41.19992 | -1.42058 | 35963 ft | 492 kts | 78° |
| 2026-05-04 16:36 | 41.22377 | -1.28823 | 35970 ft | 491 kts | 78° |
| 2026-05-04 16:37 | 41.24735 | -1.15591 | 35965 ft | 490 kts | 79° |
| 2026-05-04 16:38 | 41.27862 | -0.97964 | 35945 ft | 490 kts | 79° |
| 2026-05-04 16:39 | 41.31724 | -0.75907 | 35945 ft | 490 kts | 79° |
| 2026-05-04 16:40 | 41.34724 | -0.58239 | 35932 ft | 488 kts | 85° |
| 2026-05-04 16:41 | 41.34786 | -0.49325 | 35926 ft | 478 kts | 103° |
| 2026-05-04 16:41 | 41.33303 | -0.36177 | 35712 ft | 487 kts | 103° |
| 2026-05-04 16:42 | 41.31778 | -0.22659 | 34356 ft | 499 kts | 103° |
| 2026-05-04 16:43 | 41.30772 | -0.13684 | 32707 ft | 489 kts | 103° |
| 2026-05-04 16:43 | 41.29751 | -0.04812 | 31420 ft | 481 kts | 103° |
| 2026-05-04 16:43 | 41.29237 | -0.00428 | 30789 ft | 477 kts | 103° |
| 2026-05-04 16:44 | 41.27416 | 0.15319 | 28505 ft | 465 kts | 100° |
| 2026-05-04 16:45 | 41.27768 | 0.23896 | 27576 ft | 464 kts | 79° |
| 2026-05-04 16:46 | 41.30385 | 0.35995 | 26433 ft | 446 kts | 76° |
| 2026-05-04 16:46 | 41.32093 | 0.43873 | 25716 ft | 441 kts | 76° |
| 2026-05-04 16:47 | 41.33786 | 0.51673 | 24998 ft | 436 kts | 76° |
| 2026-05-04 16:47 | 41.35465 | 0.59384 | 24288 ft | 432 kts | 76° |
| 2026-05-04 16:48 | 41.37940 | 0.70820 | 23212 ft | 425 kts | 76° |
| 2026-05-04 16:48 | 41.38747 | 0.74600 | 22861 ft | 423 kts | 76° |
| 2026-05-04 16:49 | 41.40334 | 0.82038 | 22191 ft | 418 kts | 76° |
| 2026-05-04 16:49 | 41.41867 | 0.89449 | 21540 ft | 411 kts | 83° |
| 2026-05-04 16:50 | 41.42570 | 0.96946 | 21025 ft | 406 kts | 86° |
| 2026-05-04 16:50 | 41.43230 | 1.04368 | 20522 ft | 402 kts | 86° |
| 2026-05-04 16:51 | 41.43865 | 1.11722 | 20025 ft | 397 kts | 86° |
| 2026-05-04 16:51 | 41.44176 | 1.15374 | 19783 ft | 395 kts | 86° |
| 2026-05-04 16:51 | 41.44795 | 1.22605 | 19302 ft | 391 kts | 86° |
| 2026-05-04 16:52 | 41.45410 | 1.29765 | 18821 ft | 387 kts | 86° |
| 2026-05-04 16:52 | 41.45713 | 1.33321 | 18587 ft | 385 kts | 86° |
| 2026-05-04 16:53 | 41.46307 | 1.40376 | 18116 ft | 381 kts | 86° |
| 2026-05-04 16:53 | 41.47175 | 1.50830 | 17316 ft | 375 kts | 86° |
| 2026-05-04 16:54 | 41.47459 | 1.54275 | 17053 ft | 373 kts | 86° |
| 2026-05-04 16:55 | 41.48570 | 1.67866 | 15309 ft | 367 kts | 86° |
| 2026-05-04 16:55 | 41.49107 | 1.74616 | 14550 ft | 362 kts | 86° |
| 2026-05-04 16:56 | 41.49645 | 1.81247 | 13772 ft | 358 kts | 86° |
| 2026-05-04 16:56 | 41.50428 | 1.91053 | 12251 ft | 347 kts | 88° |
| 2026-05-04 16:57 | 41.50247 | 1.94207 | 11978 ft | 339 kts | 103° |
| 2026-05-04 16:57 | 41.49353 | 2.00367 | 11478 ft | 337 kts | 103° |
| 2026-05-04 16:58 | 41.47990 | 2.09488 | 10737 ft | 333 kts | 104° |
| 2026-05-04 16:58 | 41.47533 | 2.12506 | 10491 ft | 331 kts | 104° |
| 2026-05-04 16:59 | 41.46622 | 2.18493 | 10014 ft | 329 kts | 104° |
| 2026-05-04 17:00 | 41.45312 | 2.29861 | 9451 ft | 304 kts | 86° |
| 2026-05-04 17:00 | 41.47332 | 2.37842 | 8532 ft | 301 kts | 66° |
| 2026-05-04 17:01 | 41.49049 | 2.42850 | 7557 ft | 293 kts | 66° |
| 2026-05-04 17:01 | 41.50735 | 2.47770 | 6535 ft | 293 kts | 66° |
| 2026-05-04 17:02 | 41.51575 | 2.52967 | 5369 ft | 294 kts | 101° |
| 2026-05-04 17:02 | 41.49666 | 2.57250 | 4941 ft | 249 kts | 143° |
| 2026-05-04 17:03 | 41.48232 | 2.58313 | 4817 ft | 227 kts | 161° |
| 2026-05-04 17:03 | 41.46700 | 2.58704 | 4693 ft | 224 kts | 178° |
| 2026-05-04 17:03 | 41.43736 | 2.57619 | 4441 ft | 226 kts | 212° |
| 2026-05-04 17:04 | 41.41755 | 2.54382 | 4184 ft | 232 kts | 248° |
| 2026-05-04 17:04 | 41.41009 | 2.50182 | 3925 ft | 233 kts | 256° |
| 2026-05-04 17:05 | 41.40320 | 2.45964 | 3675 ft | 233 kts | 255° |
| 2026-05-04 17:05 | 41.39628 | 2.41756 | 3426 ft | 233 kts | 255° |
| 2026-05-04 17:06 | 41.38955 | 2.37650 | 3168 ft | 218 kts | 255° |
| 2026-05-04 17:06 | 41.38638 | 2.35714 | 3040 ft | 211 kts | 255° |
| 2026-05-04 17:07 | 41.37939 | 2.31975 | 2796 ft | 206 kts | 244° |
| 2026-05-04 17:07 | 41.37551 | 2.30822 | 2711 ft | 206 kts | 243° |
| 2026-05-04 17:07 | 41.36750 | 2.28500 | 2568 ft | 202 kts | 243° |
| 2026-05-04 17:07 | 41.36186 | 2.26843 | 2482 ft | 190 kts | 242° |
| 2026-05-04 17:08 | 41.35657 | 2.25289 | 2332 ft | 178 kts | 243° |
| 2026-05-04 17:08 | 41.34693 | 2.22454 | 1933 ft | 160 kts | 243° |
| 2026-05-04 17:08 | 41.34243 | 2.21133 | 1757 ft | 154 kts | 243° |
| 2026-05-04 17:09 | 41.33803 | 2.19843 | 1536 ft | 151 kts | 243° |
| 2026-05-04 17:09 | 41.33366 | 2.18563 | 1331 ft | 151 kts | 244° |
| 2026-05-04 17:09 | 41.32931 | 2.17299 | 1143 ft | 150 kts | 244° |
| 2026-05-04 17:10 | 41.32092 | 2.14822 | 774 ft | 144 kts | 245° |
| 2026-05-04 17:10 | 41.30886 | 2.11255 | 209 ft | 139 kts | 245° |
| 2026-05-04 17:11 | 41.30482 | 2.10108 | 38 ft | 138 kts | 245° |
| 2026-05-04 17:11 | 41.30119 | 2.09053 | 5 ft | 105 kts | 245° |
| 2026-05-04 17:11 | 41.29762 | 2.08034 | 4 ft | 34 kts | 238° |
| 2026-05-04 17:12 | 41.29657 | 2.07894 | 3 ft | 12 kts | 217° |
| 2026-05-04 17:12 | 41.29627 | 2.07864 | 3 ft | 0 kts | 216° |
| 2026-05-04 17:13 | 41.29503 | 2.07744 | 3 ft | 21 kts | 213° |
| 2026-05-04 17:14 | 41.29315 | 2.07251 | 3 ft | 20 kts | 245° |
| 2026-05-04 17:14 | 41.29261 | 2.07092 | 3 ft | 14 kts | 245° |
| 2026-05-04 17:14 | 41.29139 | 2.07089 | 3 ft | 6 kts | 202° |
| 2026-05-04 17:15 | 41.29115 | 2.07072 | 3 ft | 2 kts | 187° |
| 2026-05-04 17:15 | 41.29063 | 2.07096 | 3 ft | 2 kts | 153° |
| 2026-05-04 17:16 | 41.29054 | 2.07102 | 3 ft | 1 kts | 155° |
| 2026-05-04 17:16 | 41.29051 | 2.07103 | 3 ft | 0 kts | 155° |